»·PEaware :: HAWG11 KLSV-KLSV

HAWG11 :: KLSV-KLSV

FLIGHT INFORMATION

Flight Status: Arrived
Operator: Unknown
More flights by this operator :: More flights under this callsign
Pilot: Logan D. (20254)
Aircraft: FAIRCHILD A-10 THUNDERBOLT 2
(A10)
More flights by this aircraft type
Origin: KLSV Nellis AFB
United States
Destination: KLSV Nellis AFB
United States
More flights between these airports :: More routes between these airports
Route:
File this flight plan on PilotEdge
Remarks: TAC-WEST departure, killin tanks in R4806W
Altitude:
(Current/Filed)
8,500ft
Speed:
(Current/Filed)
250kts
Departed: 29-Jul-20 08:19 AM
Arrived: 29-Jul-20 09:06 AM
Distance/Time
Traveled:
1nm/0:46
Distance/Time
To Go:
Arrived

Flight Plot

Page will automatically refresh every two minutes.


Map Options




Map Legend


Flown Route
Filed Route
Departure Airport
Arrival Airport
Navaid (VOR, NDB)
Fix

Horizontal Profiles

Position Reports

Time Latitude Longitude Heading Altitude Ground
Speed
29-Jul-20 08:01 36.228933 -115.023171 83 1850ft 0kts
29-Jul-20 08:02 36.228933 -115.023171 83 1850ft 0kts
29-Jul-20 08:03 36.228933 -115.023171 83 1850ft 0kts
29-Jul-20 08:04 36.228933 -115.023171 83 1850ft 0kts
29-Jul-20 08:05 36.228933 -115.023171 83 1850ft 0kts
29-Jul-20 08:06 36.228933 -115.023171 83 1850ft 0kts
29-Jul-20 08:07 36.228933 -115.023171 83 1850ft 0kts
29-Jul-20 08:09 36.228933 -115.023171 83 1850ft 0kts
29-Jul-20 08:10 36.228933 -115.023171 83 1850ft 0kts
29-Jul-20 08:11 36.228933 -115.023171 83 1850ft 0kts
29-Jul-20 08:12 36.228933 -115.023171 83 1850ft 0kts
29-Jul-20 08:13 36.230505 -115.026489 306 1850ft 16kts
29-Jul-20 08:14 36.229569 -115.032924 221 1850ft 24kts
29-Jul-20 08:15 36.225142 -115.037707 219 1849ft 23kts
29-Jul-20 08:16 36.223671 -115.042393 311 1848ft 19kts
29-Jul-20 08:17 36.224401 -115.043297 324 1848ft 0kts
29-Jul-20 08:18 36.224691 -115.043567 314 1848ft 14kts
29-Jul-20 08:19 36.240214 -115.027514 40 2076ft 172kts
29-Jul-20 08:20 36.287218 -115.001701 322 2954ft 234kts
29-Jul-20 08:21 36.309538 -115.069918 282 3249ft 165kts
29-Jul-20 08:22 36.334913 -115.135324 298 3874ft 251kts
29-Jul-20 08:23 36.367883 -115.209861 297 4541ft 244kts
29-Jul-20 08:24 36.394776 -115.283506 290 4561ft 227kts
29-Jul-20 08:25 36.416365 -115.356182 322 4844ft 231kts
29-Jul-20 08:26 36.476872 -115.396226 331 7355ft 252kts
29-Jul-20 08:27 36.540322 -115.437703 331 9856ft 255kts
29-Jul-20 08:28 36.609609 -115.485902 330 10259ft 309kts
29-Jul-20 08:28 36.679363 -115.502407 355 10374ft 318kts
29-Jul-20 08:30 36.783840 -115.511533 355 10367ft 322kts
29-Jul-20 08:30 36.857122 -115.507352 35 10407ft 321kts
29-Jul-20 08:31 36.826980 -115.452453 173 10543ft 288kts
29-Jul-20 08:33 36.752594 -115.484229 273 11159ft 284kts
29-Jul-20 08:33 36.799785 -115.550105 320 10166ft 329kts
29-Jul-20 08:34 36.871385 -115.533268 76 9888ft 324kts
29-Jul-20 08:35 36.821936 -115.460261 179 10011ft 340kts
29-Jul-20 08:36 36.758715 -115.518005 293 9888ft 348kts
29-Jul-20 08:37 36.842691 -115.596947 325 5033ft 393kts
29-Jul-20 08:38 36.898140 -115.561059 112 7302ft 300kts
29-Jul-20 08:39 36.876769 -115.607549 300 4222ft 355kts
29-Jul-20 08:40 36.921382 -115.548566 120 6854ft 316kts
29-Jul-20 08:41 36.881886 -115.619624 292 5024ft 332kts
29-Jul-20 08:42 36.936141 -115.601707 77 8211ft 311kts
29-Jul-20 08:43 36.897709 -115.571242 238 6264ft 369kts
29-Jul-20 08:44 36.908792 -115.639908 59 7052ft 265kts
29-Jul-20 08:45 36.860408 -115.594398 166 8385ft 259kts
29-Jul-20 08:46 36.789406 -115.578840 169 8190ft 268kts
29-Jul-20 08:47 36.728961 -115.540507 97 8282ft 269kts
29-Jul-20 08:48 36.727674 -115.444636 86 9609ft 314kts
29-Jul-20 08:49 36.731634 -115.329729 86 9603ft 343kts
29-Jul-20 08:50 36.735659 -115.210349 86 9602ft 346kts
29-Jul-20 08:51 36.739609 -115.091628 86 9588ft 312kts
29-Jul-20 08:52 36.742263 -114.994794 85 7875ft 221kts
29-Jul-20 08:53 36.719911 -114.940458 153 5996ft 193kts
29-Jul-20 08:54 36.661230 -114.926445 171 5515ft 205kts
29-Jul-20 08:55 36.609831 -114.918653 171 5544ft 176kts
29-Jul-20 08:56 36.543184 -114.907779 171 5538ft 235kts
29-Jul-20 08:57 36.473496 -114.905028 192 5266ft 283kts
29-Jul-20 08:58 36.405490 -114.953530 221 5533ft 280kts
29-Jul-20 08:59 36.356620 -115.001846 218 4992ft 222kts
29-Jul-20 09:00 36.302809 -115.039133 192 4307ft 220kts
29-Jul-20 09:01 36.259394 -115.078730 227 3685ft 205kts
29-Jul-20 09:02 36.216190 -115.082776 127 3466ft 169kts
29-Jul-20 09:03 36.225187 -115.043878 40 1890ft 131kts
29-Jul-20 09:04 36.244279 -115.023120 38 1857ft 46kts
29-Jul-20 09:05 36.244542 -115.020395 131 1860ft 13kts
29-Jul-20 09:06 36.239348 -115.024999 219 1854ft 27kts
29-Jul-20 09:07 36.234401 -115.030347 219 1851ft 20kts
29-Jul-20 09:08 36.230782 -115.030272 89 1850ft 9kts
29-Jul-20 09:09 36.229631 -115.024814 96 1850ft 16kts
29-Jul-20 09:10 36.229640 -115.024468 88 1850ft 0kts

Navigation Log

Ident Type
Flight plan parsing failed, navigation log unavailable